Aérodrome :
LOGIN :

S'inscrire | Disclaimer

   EN    FR    IT 

 










Légende :    VFR   VFR Marginal   IFR   IFR Intensif   IFR Très Intensif
Visi : 
Plafond : 
>= 8 km
>= 3000ft
5 à 8 km
1000 à 3000 ft
1500m à 5 km
500 à 1000 ft
800 à 1500m
200 à 500 ft
< 800m
< 200 ft
Symboles :   Orages  Brouillard  Fortes neiges  Fortes précipitations  Vent > 20 kt
SIGMETs :   Divers  Orages  Givrage  Turbulence  Onde Orograph.  Cendres Volcan.







- Altitude de l'aérodrome : 370 ft


EBBE - Beauvechain AB

DERNIER METAR :
  • 230555Z AUTO VRB02KT 9999 NCD 05/03 Q1037 BLU

METARs EXPIRÉS :
  • 230525Z AUTO 13004KT 9999 NCD 05/03 Q1036 BLU
  • 230455Z AUTO 10003KT 8000 NCD 05/03 Q1037 BLU
  • 230446Z AUTO 10003KT 4800 NCD 04/03 Q1037 GRN
  • 230425Z AUTO 10003KT 6000 NCD 04/03 Q1037 WHT
  • 230414Z AUTO VRB02KT 3400 BR NCD 04/03 Q1037 YLO
  • 230355Z AUTO VRB02KT 3700 BR NCD 04/03 Q1037 GRN
  • 230351Z AUTO VRB02KT 3500 BR NCD 04/03 Q1037 YLO
  • 230325Z AUTO VRB01KT 4900 NCD 05/04 Q1037 GRN

Prévision TAF périmée.
Pas de NOTAMs connus pour ce terrain.



MET'MAP, la Météo Aéronautique d'un coup d'oeil ! - Copyright ORBIFLY Décembre 2007 - Disclaimer

ORBIFLY MET'MAP TEAM :

Programmation & Développement : Alexandra Zaïnal
Conception & Développement : Baudouin d'Aumeries
Co-Programmation & Développement : Marc-Olivier Méhu
Soutien technique & logistique : Manuel Goepfert

Contact : metmap@orbifly.com




SOURCES & CREDITS :

   NOAA